< < Back
Terminal Aerodrome Forecast


Current Version              Previous Versions:   1  2  3  4  5  6  7  8  9  

Terminal Aerodrome Forecast

017
FTUS42 KILM 180520
TAFILM
TAF
KILM 180520Z 1806/1906 00000KT P6SM VCSH OVC080
      TEMPO 1810/1813 4SM -SHRA BR SCT005 BKN015
     FM181300 05005KT 5SM -SHRA BR SCT010 OVC025
     FM182100 09005KT P6SM VCSH SCT015 BKN040
     FM190200 05003KT P6SM BKN080=

Latest METAR

984
SAUS70 KWBC 181900 RRO
MTRILM
METAR KILM 181853Z 16005KT 10SM OVC075 22/18 A2998 RMK AO2 SLP150
T02220183


USA.gov is the U.S. government's official web portal to all federal, state and local government web resources and services.